KECG/ECG METAR and TAF weather

Enter ICAO airport designator
Station Type Date Time Source
KECG METAR 2019/10/16 18:54 UTC NOAA

KECG 161854Z 17015G25KT 10SM -RA BKN013 BKN019 OVC027 23/20 A2952 RMK AO2 PK WND 17028/1842 PRESFR SLP995 P0000 T02280200


Station Type Date Time Source
KECG Decoded METAR 2019/10/16 18:54 UTC NOAA

ELIZABETH CITY C/G REGN AIRPORT , NC, United States (KECG) 36-15N 076-10W 11M
Oct 16, 2019 - 02:54 PM EDT / 2019.10.16 1854 UTC
Wind: from the S (170 degrees) at 17 MPH (15 KT) gusting to 29 MPH (25 KT):0
Visibility: 10 mile(s):0
Sky conditions: overcast
Weather: light rain
Precipitation last hour: A trace
Temperature: 73.0 F (22.8 C)
Dew Point: 68.0 F (20.0 C)
Relative Humidity: 84%
Pressure (altimeter): 29.52 in. Hg (999 hPa)
Pressure tendency: falling rapidly
ob: KECG 161854Z 17015G25KT 10SM -RA BKN013 BKN019 OVC027 23/20 A2952 RMK AO2 PK WND 17028/1842 PRESFR SLP995 P0000 T02280200
cycle: 19

Station Type Date Time Source
KECG TAF 2019/10/16 18:48 UTC NOAA

TAF KECG 161741Z 1618/1718 17010G18KT P6SM -RA BKN015 OVC040
FM162000 20012G20KT 4SM RA BR OVC015
TEMPO 1620/1623 1 1/2SM +RA BR BKN008
FM162300 28014G22KT P6SM VCSH BKN070
FM170100 28012G20KT P6SM SKC
FM171300 28015G25KT P6SM SCT050

Example: see airport list